James Edwards

Scout - Millwall
3 Dec 2028
Sunday
Process

Personality

Adaptability (12) Ambition (17) Controversy (8) Loyalty (4) Pressure (12) Professionalism (13) Sportsmanship (9) Temperament (14)

Profile

Coaching Style Democratic
License National A
Determination 6
Man Management 9
Motivating 8
Discipline 7
Job Satisfaction
100%
Fatigue
0%
Role Scout
Wage 33.2K p/w
Contract 14.03.2029

Performance

Behaviour Good
Training Effectiveness
46%
Player Development
50%
Injury Prevention
50%
Tactical Implementation
30%

Recent Events

Attended a recruitment meeting now
Recommended a transfer target now
Attended a recruitment meeting 7d ago
Recommended a transfer target 7d ago
Recommended a transfer target 7d ago
Recommended a transfer target 7d ago
Recommended a transfer target 14d ago
Recommended a transfer target 14d ago

Currently Monitoring

133
Player Club Status Ability Confidence Watched Last Observed Latest Vote
Mao Hosoya Santos Active 134 / 135 67% 1 01.01.2028 Approve
Dion Beljo AJ Auxerre Active 131 / 132 66% 1 01.01.2028 Approve
Roberto Fernández Braga Active 138 / 140 66% 1 01.01.2028 -
Lucas Bergvall Tottenham Active 142 / 149 40% 5 10.11.2027 -
Colin Guske Orlando City Active 90 / 106 40% 2 10.11.2027 -
Drew Baiera New York City Active 98 / 92 40% 2 09.11.2027 -
Snyder Brunell Seattle Sounders Active 85 / 110 40% 1 09.11.2027 -
Oscar Steinke Brånby Hammarby Active 107 / 105 40% 1 06.11.2027 -
Onyeuche Ujunwa Ikorodu City Active 81 / 97 40% 1 06.11.2027 -
Rhys Walters Port Vale Active 99 / 122 40% 1 05.11.2027 -
Aiden Hezarkhani Real Salt Lake Active 87 / 100 40% 1 04.11.2027 -
Agustín Obregón River Plate Active 121 / 119 40% 1 04.11.2027 -
Victor Hernandez Santa Fe Active 131 / 114 40% 2 03.11.2027 -
Jonny Shore New York City Active 91 / 106 40% 1 03.11.2027 -
Christos Mouzakitis Hull City Active 128 / 137 40% 1 03.11.2027 -
Josh Nichols Oldham Athletic Active 126 / 125 40% 1 01.11.2027 -
Adrian Skogmar Malmo FF Active 109 / 117 40% 1 01.11.2027 -
Romelle Donovan Brentford Active 119 / 123 40% 2 05.07.2027 -
Nupe Godstime Bayelsa United Active 92 / 85 40% 1 05.07.2027 -
Sindre Walle Egeli Udinese Active 132 / 144 40% 1 21.06.2027 -
Leo Castledine Middlesbrough Active 126 / 138 40% 1 21.06.2027 -
Charlie Gray Fleetwood Town Active 86 / 100 40% 2 14.06.2027 -
Sampson Dweh Mallorca Active 133 / 134 66% 1 01.06.2027 Approve
Godwin Oham Warri Wolves Active 90 / 84 40% 2 31.05.2027 -
Jacob Greaves Ipswich Town Active 145 / 134 40% 3 28.05.2027 -
Aidan Morris Middlesbrough Active 130 / 137 40% 3 28.05.2027 -
Olaniyi Saheed Kwara United Active 91 / 92 40% 1 28.05.2027 -
Joel Bagan Cardiff City Active 116 / 125 40% 1 28.05.2027 -
Lewis Gibson Preston Active 125 / 132 40% 3 27.05.2027 -
Bosun Lawal Stoke City Active 131 / 129 40% 3 27.05.2027 -
Lucas Da Cunha Como Active 138 / 143 40% 2 27.05.2027 -
Issa Yusuf Shooting Stars Active 95 / 95 40% 1 26.05.2027 -
Adam Randell Bristol City Active 124 / 134 40% 2 24.05.2027 -
Oliver Arblaster Sheffield United Active 131 / 131 40% 1 24.05.2027 -
Dennis Cirkin Queens Park Rangers Active 136 / 134 40% 7 23.05.2027 -
Brooke Norton-Cuffy Hull City Active 134 / 130 40% 5 23.05.2027 -
Gonçalo Oliveira Benfica Active 110 / 113 40% 3 22.05.2027 -
Ethan Pye Stockport County Active 113 / 126 40% 2 22.05.2027 -
Bade Aluko Leicester City Active 119 / 119 40% 1 22.05.2027 -
Harry Clarke Preston Active 125 / 132 40% 3 21.05.2027 -
Alfie Gilchrist West Bromwich Albion Active 133 / 126 40% 3 17.05.2027 -
Josh Acheampong Everton Active 143 / 136 40% 2 17.05.2027 -
Ronan Kpakio AC Milan Active 117 / 118 40% 1 17.05.2027 -
Olalekan Adeleke Remo Stars Active 91 / 85 40% 1 16.05.2027 -
Lucan Louw US Bougouni Active 80 / 83 40% 1 16.05.2027 -
Kristoffer Lund Birmingham Active 131 / 121 40% 2 14.05.2027 -
Alex Scott Bournemouth Active 143 / 146 40% 5 14.05.2027 -
Max Johnston Derby County Active 123 / 132 40% 5 11.05.2027 -
Juanlu Bournemouth Active 154 / 152 40% 1 10.05.2027 -
Ronnie Edwards Queens Park Rangers Active 127 / 124 40% 2 09.05.2027 -
Calvin Bassey Fulham Active 147 / 151 40% 3 09.05.2027 -
Brian De Keersmaecker Oxford United Active 124 / 118 40% 2 09.05.2027 -
Luke McNally Bristol City Active 134 / 131 40% 1 08.05.2027 -
Jack Currie Oxford United Active 129 / 123 40% 3 06.05.2027 -
Harvey Vale Queens Park Rangers Active 125 / 116 40% 1 06.05.2027 -
Milan van Ewijk Coventry City Active 127 / 138 40% 3 03.05.2027 -
Michael Baidoo Plymouth Argyle Active 124 / 134 40% 6 02.05.2027 -
Alessandro Buongiorno Cagliari Active 154 / 164 40% 2 01.05.2027 -
Zane Albarus Shrewsbury Town Active 100 / 96 40% 2 01.05.2027 -
Mitchel Bakker Modena Active 126 / 119 40% 1 01.05.2027 -
Tommaso Cecotti Carpi Active 85 / 90 40% 1 01.05.2027 -
Jan Bürger Northampton Town Active 118 / 113 40% 4 30.04.2027 -
Tiago Freitas Benfica Active 106 / 118 40% 2 29.04.2027 -
Mpho Khethang FC Diarra Active 89 / 92 40% 1 29.04.2027 -
Oliver Skipp Leicester City Active 126 / 140 40% 4 26.04.2027 -
Lewis Bate Stockport County Active 123 / 120 40% 2 26.04.2027 -
Kamaldeen Atiemo Wa All Stars Active 92 / 108 40% 2 25.04.2027 -
Bence Dárdai VfL Wolfsburg Active 138 / 143 40% 1 25.04.2027 -
Ryan Sessegnon Fulham Active 148 / 146 40% 6 23.04.2027 -
Shea Charles Southampton Active 130 / 133 40% 1 23.04.2027 -
Xavier Simons Bolton Wanderers Active 111 / 127 40% 1 21.04.2027 -
Hector Kyprianou Watford Active 130 / 128 40% 1 21.04.2027 -
Toby Collyer West Bromwich Albion Active 123 / 128 40% 1 20.04.2027 -
Darlin Yongwa Norwich City Active 125 / 124 40% 1 20.04.2027 -
Sascha Britschgi AC Milan Active 122 / 125 40% 1 13.04.2027 -
Welington Southampton Active 132 / 134 40% 2 12.04.2027 -
Dean Jali Platinum Stars Active 83 / 103 40% 1 11.04.2027 -
Rivaldo Mkhize Black Aces Active 69 / 75 40% 1 10.04.2027 -
Miguel Figueiredo Benfica Active 100 / 115 40% 1 10.04.2027 -
Raoul Bellanova Atalanta Active 151 / 157 40% 1 07.04.2027 -
Martim Cunha Porto Active 92 / 115 40% 1 05.04.2027 -
Jacques Ekomié Wrexham Active 135 / 126 40% 4 03.04.2027 -
Bradley de Jesus Nacional Active 92 / 95 40% 1 03.04.2027 -
Bernardo Lima Porto Active 94 / 106 40% 1 03.04.2027 -
Max Bird Birmingham Active 127 / 125 40% 3 31.03.2027 -
Romano Floriani Mussolini Blackpool Active 124 / 121 40% 2 31.03.2027 -
Lewis Ferguson Bologna Active 150 / 143 40% 1 28.03.2027 -
Enrico Delprato Parma Active 140 / 143 40% 1 26.03.2027 -
Caleb Yirenkyi Coventry City Active 136 / 130 40% 1 26.03.2027 -
Olivier Leroux Mouscron Active 101 / 101 40% 1 26.03.2027 -
Kiani Inge Groningen Active 102 / 112 40% 1 25.03.2027 -
Afriyie Sulemana WAFA Active 88 / 94 40% 1 24.03.2027 -
Hayden Carter Blackburn Rovers Active 129 / 128 40% 1 18.03.2027 -
Dani Ángel Sampdoria Active 90 / 101 40% 1 31.12.2026 -
Finn Azaz Southampton Active 131 / 129 40% 4 30.12.2026 -
Giacomo Raspadori Atalanta Active 152 / 149 40% 1 30.12.2026 -
Juan Bezerra Zamalek Active 128 / 131 40% 1 30.12.2026 -
Léo Leroy Preston Active 118 / 117 40% 1 28.12.2026 -
Manu Morlanes Mallorca Active 133 / 139 40% 3 27.12.2026 -
Sorba Thomas Stoke City Active 130 / 131 40% 1 24.12.2026 -
Talles Magno New York City Active 139 / 138 40% 1 24.12.2026 -
Jack Rudoni Coventry City Active 135 / 143 40% 1 20.12.2026 -
Bongani Zungu Ajax Cape Town Active 139 / 129 40% 1 19.12.2026 -
Florentino Luís Ipswich Town Active 144 / 149 40% 3 16.12.2026 -
Wilson Isidor Sunderland Active 132 / 126 40% 2 16.12.2026 -
Scott Twine Bristol City Active 126 / 132 40% 1 13.12.2026 -
Chemsdine Talbi Sunderland Active 144 / 141 40% 1 11.12.2026 -
Yannick Bright Inter Miami CF Active 122 / 133 40% 1 07.12.2026 -
Facundo Mura Inter Miami CF Active 133 / 122 40% 1 07.12.2026 -
Toti Wolverhampton Active 137 / 136 40% 1 06.12.2026 -
Habib Diarra Sunderland Active 138 / 140 40% 1 06.12.2026 -
Jakub Moder Burnley Active 142 / 133 40% 1 05.12.2026 -
Japhet Sery Larsen Philadelphia Union Active 138 / 137 40% 2 03.12.2026 -
Bradley Zwane SuperSport United Active 128 / 105 40% 1 03.12.2026 -
Bénie Traoré New York City Active 113 / 126 40% 1 03.12.2026 -
Justin Devenny Stoke City Active 129 / 129 40% 1 03.12.2026 -
Telasco Segovia Inter Miami CF Active 127 / 131 40% 1 29.11.2026 -
Pedro Porro Tottenham Active 138 / 140 40% 1 27.11.2026 -
David Ayala Inter Miami CF Active 113 / 126 40% 1 27.11.2026 -
Cian Ashford Cardiff City Active 110 / 117 40% 1 25.11.2026 -
Isaiah Jones Luton Town Active 123 / 126 40% 1 25.11.2026 -
Santiago Rodríguez Columbus Crew Active 136 / 124 40% 1 24.11.2026 -
Jadon Sancho Manchester United Active 153 / 143 40% 1 24.11.2026 -
Elias Achouri San Diego Football Club Active 144 / 121 40% 1 20.11.2026 -
Xavi Simons Tottenham Active 156 / 166 40% 1 19.11.2026 -
Martín Ojeda Orlando City Active 147 / 136 40% 1 19.11.2026 -
Tadeo Allende Inter Miami CF Active 119 / 125 40% 1 17.11.2026 -
Kevin Fulham Active 141 / 138 40% 1 15.11.2026 -
Ousmane Diomande Nottingham Forest Active 156 / 161 40% 1 13.11.2026 -
David Da Costa Portland Timbers Active 136 / 118 40% 1 04.11.2026 -
Gabriel Pirani San Diego Football Club Active 121 / 142 40% 1 04.11.2026 -
Diego Luna Real Salt Lake Active 135 / 126 40% 1 04.11.2026 -
Tariq Lamptey Queens Park Rangers Active 142 / 122 40% 1 02.11.2026 -